Time;durP1;ratioP1;P1;durP2;ratioP2;P2;SDS_P1;SDS_P2;PMS_P1;PMS_P2;Temp;Humidity;BMP_temperature;BMP_pressure;BME280_temperature;BME280_humidity;BME280_pressure;Samples;Min_cycle;Max_cycle;Signal;HPM_P1;HPM_P2
2022/07/26 00:02:01;;;;;;;8.77;5.53;;;;;;;18.15;100.00;100771.44;5054954;28;20478;-49
2022/07/26 00:04:29;;;;;;;13.60;5.13;;;;;;;18.18;100.00;100773.66;5058534;28;20435;-43
2022/07/26 00:06:57;;;;;;;6.00;5.00;;;;;;;18.22;100.00;100763.97;5058611;28;20458;-45
2022/07/26 00:09:26;;;;;;;8.87;5.43;;;;;;;18.24;100.00;100759.16;5058598;28;20426;-45
2022/07/26 00:11:55;;;;;;;11.13;5.40;;;;;;;18.24;100.00;100760.00;5058117;28;20458;-48
2022/07/26 00:14:23;;;;;;;6.70;5.33;;;;;;;18.20;100.00;100775.03;5058325;28;20441;-47
2022/07/26 00:16:50;;;;;;;10.13;5.47;;;;;;;18.20;100.00;100766.94;5058103;28;20496;-47
2022/07/26 00:19:18;;;;;;;8.00;5.80;;;;;;;18.23;100.00;100765.63;5058215;28;20427;-45
2022/07/26 00:21:45;;;;;;;11.63;6.17;;;;;;;18.21;100.00;100765.88;5057873;28;20851;-43
2022/07/26 00:24:13;;;;;;;9.90;6.23;;;;;;;18.22;100.00;100766.66;5058106;28;20431;-45
2022/07/26 00:26:41;;;;;;;10.73;4.90;;;;;;;18.27;100.00;100769.47;5058289;28;20455;-49
2022/07/26 00:29:10;;;;;;;7.17;5.70;;;;;;;18.28;100.00;100771.09;5058174;28;20470;-46
2022/07/26 00:31:38;;;;;;;5.57;4.80;;;;;;;18.28;100.00;100773.78;5072979;23;20521;-45
2022/07/26 00:34:06;;;;;;;9.27;6.10;;;;;;;18.25;100.00;100764.31;5043472;28;20428;-45
2022/07/26 00:36:33;;;;;;;9.67;5.37;;;;;;;18.27;100.00;100760.56;5038103;28;20431;-48
2022/07/26 00:39:02;;;;;;;14.10;6.80;;;;;;;18.26;100.00;100759.72;5037905;28;20963;-47
2022/07/26 00:41:30;;;;;;;9.33;5.83;;;;;;;18.25;100.00;100775.09;5037533;28;20475;-46
2022/07/26 00:44:00;;;;;;;10.50;5.70;;;;;;;18.21;100.00;100773.97;5037511;28;20437;-48
2022/07/26 00:46:29;;;;;;;10.50;6.20;;;;;;;18.22;100.00;100778.28;5037817;28;20931;-49
2022/07/26 00:48:57;;;;;;;10.43;6.97;;;;;;;18.23;100.00;100776.41;5037935;28;20467;-45
2022/07/26 00:51:25;;;;;;;9.77;6.20;;;;;;;18.17;100.00;100764.72;5037466;28;20459;-43
2022/07/26 00:53:52;;;;;;;11.63;6.70;;;;;;;18.13;100.00;100768.16;5037542;28;20885;-46
2022/07/26 00:56:21;;;;;;;8.87;5.17;;;;;;;18.14;100.00;100762.50;5037663;28;20435;-44
2022/07/26 00:58:49;;;;;;;11.43;6.60;;;;;;;18.11;100.00;100773.81;5037581;28;20424;-47
2022/07/26 01:01:16;;;;;;;8.70;6.43;;;;;;;18.12;100.00;100770.06;5037347;28;20493;-45
2022/07/26 01:03:50;;;;;;;11.80;5.70;;;;;;;18.13;100.00;100762.75;5037438;28;20932;-48
2022/07/26 01:06:17;;;;;;;7.60;6.37;;;;;;;18.13;100.00;100770.84;5037879;28;20446;-45
2022/07/26 01:08:50;;;;;;;10.13;6.93;;;;;;;18.09;100.00;100773.25;5037582;28;20852;-44
2022/07/26 01:11:17;;;;;;;10.73;7.07;;;;;;;18.11;100.00;100772.97;5037257;28;20476;-46
2022/07/26 01:13:47;;;;;;;7.03;6.23;;;;;;;18.09;100.00;100767.84;5034517;28;20963;-44
2022/07/26 01:16:14;;;;;;;9.73;6.50;;;;;;;18.04;100.00;100770.44;5034623;28;20432;-45
2022/07/26 01:18:42;;;;;;;11.77;5.90;;;;;;;18.01;100.00;100768.22;5034722;28;20428;-45
2022/07/26 01:21:12;;;;;;;13.53;7.23;;;;;;;17.99;100.00;100766.84;5033795;28;20456;-45
2022/07/26 01:23:42;;;;;;;9.20;6.20;;;;;;;17.94;100.00;100766.75;5034254;28;20499;-48
2022/07/26 01:26:11;;;;;;;9.03;6.00;;;;;;;17.89;100.00;100764.00;5034534;28;20455;-45
2022/07/26 01:28:41;;;;;;;13.50;6.90;;;;;;;17.87;100.00;100766.09;5034146;28;20472;-44
2022/07/26 01:31:08;;;;;;;11.00;5.93;;;;;;;17.80;100.00;100770.84;5033662;28;20476;-44
2022/07/26 01:33:36;;;;;;;10.90;7.03;;;;;;;17.76;100.00;100773.19;5033809;28;20443;-45
2022/07/26 01:36:04;;;;;;;10.47;6.73;;;;;;;17.75;100.00;100768.84;5033932;28;20809;-45
2022/07/26 01:38:32;;;;;;;12.13;6.30;;;;;;;17.74;100.00;100779.91;5034211;28;20420;-46
2022/07/26 01:41:01;;;;;;;9.63;5.97;;;;;;;17.75;100.00;100773.44;5033745;28;20453;-46
2022/07/26 01:43:29;;;;;;;17.63;7.23;;;;;;;17.75;100.00;100765.34;5034013;28;20829;-48
2022/07/26 01:45:57;;;;;;;9.73;5.73;;;;;;;17.76;100.00;100770.50;5033952;28;20432;-49
2022/07/26 01:48:25;;;;;;;6.40;5.90;;;;;;;17.73;100.00;100768.28;5033793;28;20517;-46
2022/07/26 01:50:53;;;;;;;6.97;6.23;;;;;;;17.71;100.00;100767.72;5033137;28;20546;-44
2022/07/26 01:53:20;;;;;;;9.33;6.10;;;;;;;17.69;100.00;100761.72;5033754;28;20431;-44
2022/07/26 01:55:48;;;;;;;11.53;6.43;;;;;;;17.68;100.00;100766.31;5033947;28;20436;-45
2022/07/26 01:58:17;;;;;;;8.63;6.30;;;;;;;17.65;100.00;100771.38;5033745;28;20428;-46
2022/07/26 02:00:45;;;;;;;10.83;6.30;;;;;;;17.65;100.00;100772.19;5033618;28;20432;-46
2022/07/26 02:03:13;;;;;;;7.10;5.77;;;;;;;17.65;100.00;100771.38;5033258;28;20800;-47
2022/07/26 02:05:40;;;;;;;9.10;5.93;;;;;;;17.67;100.00;100775.47;5033807;28;20436;-43
2022/07/26 02:08:08;;;;;;;9.63;5.90;;;;;;;17.69;100.00;100772.53;5033575;28;20796;-48
2022/07/26 02:13:36;;;;;;;7.93;5.37;;;;;;;17.70;100.00;100771.47;4991310;28;20445;-45
2022/07/26 02:16:07;;;;;;;6.83;5.53;;;;;;;17.70;100.00;100766.09;5024188;28;20443;-47
2022/07/26 02:18:36;;;;;;;6.03;5.53;;;;;;;17.69;100.00;100776.03;5033536;28;20786;-46
2022/07/26 02:21:05;;;;;;;8.43;5.70;;;;;;;17.72;100.00;100779.31;5032756;28;20460;-44
2022/07/26 02:23:33;;;;;;;8.90;5.97;;;;;;;17.74;100.00;100777.22;5033092;28;20450;-45
2022/07/26 02:26:01;;;;;;;6.90;5.40;;;;;;;17.75;100.00;100779.66;5032992;28;20432;-43
2022/07/26 02:28:29;;;;;;;6.33;5.43;;;;;;;17.73;100.00;100773.69;5033278;28;20432;-45
2022/07/26 02:30:58;;;;;;;8.07;7.27;;;;;;;17.72;100.00;100777.44;5032605;28;20767;-45
2022/07/26 02:33:26;;;;;;;8.53;6.70;;;;;;;17.71;100.00;100780.38;5032815;28;20506;-44
2022/07/26 02:35:54;;;;;;;7.73;6.07;;;;;;;17.73;100.00;100784.47;5033061;28;20442;-44
2022/07/26 02:38:21;;;;;;;6.13;5.63;;;;;;;17.75;100.00;100776.13;5032748;28;20429;-44
2022/07/26 02:40:52;;;;;;;7.23;6.53;;;;;;;17.74;100.00;100778.00;5032209;28;20470;-45
2022/07/26 02:43:19;;;;;;;11.47;6.87;;;;;;;17.76;100.00;100781.28;5032808;28;20427;-48
2022/07/26 02:45:47;;;;;;;9.27;7.10;;;;;;;17.77;100.00;100785.59;5032767;28;20432;-44
2022/07/26 02:48:30;;;;;;;7.37;6.67;;;;;;;17.77;100.00;100784.81;5032722;28;20435;-46
2022/07/26 02:50:58;;;;;;;7.27;6.57;;;;;;;17.79;100.00;100783.50;5032149;28;20510;-45
2022/07/26 02:53:25;;;;;;;10.20;6.63;;;;;;;17.79;100.00;100785.38;5032556;28;20427;-49
2022/07/26 02:55:53;;;;;;;7.13;6.50;;;;;;;17.76;100.00;100799.34;5032721;28;20438;-47
2022/07/26 02:58:21;;;;;;;11.70;7.47;;;;;;;17.68;100.00;100795.19;5032729;28;20443;-46
2022/07/26 03:00:49;;;;;;;13.07;6.83;;;;;;;17.74;100.00;100793.38;5032241;28;20793;-45
2022/07/26 03:03:16;;;;;;;9.47;6.40;;;;;;;17.75;100.00;100803.09;5032333;28;20427;-44
2022/07/26 03:05:45;;;;;;;9.20;6.37;;;;;;;17.77;100.00;100801.78;5032301;28;20436;-43
2022/07/26 03:08:13;;;;;;;8.10;6.20;;;;;;;17.75;100.00;100801.22;5032519;28;20462;-45
2022/07/26 03:10:41;;;;;;;8.30;6.33;;;;;;;17.75;100.00;100803.91;5032332;28;20471;-49
2022/07/26 03:13:09;;;;;;;10.27;6.60;;;;;;;17.72;100.00;100804.41;5031583;28;20463;-44
2022/07/26 03:15:37;;;;;;;7.87;6.53;;;;;;;17.68;100.00;100814.06;5032318;28;20432;-48
2022/07/26 03:18:04;;;;;;;13.67;6.80;;;;;;;17.62;100.00;100805.03;5032154;28;20438;-45
2022/07/26 03:20:32;;;;;;;10.67;7.10;;;;;;;17.56;100.00;100805.19;5032093;28;20424;-47
2022/07/26 03:23:01;;;;;;;8.67;6.10;;;;;;;17.51;100.00;100807.75;5031407;28;20468;-49
2022/07/26 03:25:28;;;;;;;7.90;6.83;;;;;;;17.47;100.00;100815.50;5032279;28;20428;-45
2022/07/26 03:27:56;;;;;;;10.70;6.50;;;;;;;17.44;100.00;100809.78;5032206;28;20436;-44
2022/07/26 03:30:24;;;;;;;6.90;6.23;;;;;;;17.40;100.00;100814.00;5031977;28;20476;-46
2022/07/26 03:32:53;;;;;;;8.27;7.50;;;;;;;17.34;100.00;100814.97;5031010;28;20464;-43
2022/07/26 03:35:20;;;;;;;9.20;7.17;;;;;;;17.30;100.00;100820.00;5032041;28;20431;-44
2022/07/26 03:37:48;;;;;;;9.50;6.47;;;;;;;17.29;100.00;100810.28;5031685;28;20443;-45
2022/07/26 03:40:18;;;;;;;7.40;6.53;;;;;;;17.29;100.00;100814.88;5032027;28;20427;-46
2022/07/26 03:42:46;;;;;;;8.13;6.30;;;;;;;17.29;100.00;100820.25;5031104;28;20478;-44
2022/07/26 03:45:15;;;;;;;6.30;5.90;;;;;;;17.28;100.00;100814.03;5031904;28;20893;-43
2022/07/26 03:47:45;;;;;;;6.87;6.37;;;;;;;17.31;100.00;100812.75;5031727;28;20436;-44
2022/07/26 03:50:12;;;;;;;7.00;6.40;;;;;;;17.32;100.00;100811.69;5031763;28;20475;-47
2022/07/26 03:52:40;;;;;;;7.90;6.20;;;;;;;17.38;100.00;100810.75;5031087;28;20464;-44
2022/07/26 03:57:52;;;;;;;6.00;4.83;;;;;;;17.50;100.00;100817.69;5031369;28;20447;-49
2022/07/26 04:00:20;;;;;;;5.57;5.07;;;;;;;17.56;100.00;100818.69;5031788;28;20428;-45
2022/07/26 04:02:48;;;;;;;7.00;5.93;;;;;;;17.62;100.00;100821.22;5030905;28;20478;-46
2022/07/26 04:05:15;;;;;;;8.57;5.30;;;;;;;17.67;100.00;100823.19;5031685;28;20810;-47
2022/07/26 04:07:49;;;;;;;8.60;6.00;;;;;;;17.66;99.97;100818.84;5031676;28;20490;-46
2022/07/26 04:10:20;;;;;;;5.63;5.10;;;;;;;17.67;100.00;100823.19;5031389;28;20516;-47
2022/07/26 04:12:48;;;;;;;6.13;5.57;;;;;;;17.67;100.00;100823.19;5030824;28;20499;-45
2022/07/26 04:15:17;;;;;;;6.80;6.20;;;;;;;17.59;100.00;100832.47;5031683;28;20796;-46
2022/07/26 04:17:47;;;;;;;6.13;5.53;;;;;;;17.56;100.00;100842.94;5031654;28;20437;-47
2022/07/26 04:20:15;;;;;;;9.80;6.00;;;;;;;17.51;100.00;100853.56;5031687;28;20432;-44
2022/07/26 04:22:43;;;;;;;12.50;5.30;;;;;;;17.46;100.00;100853.47;5030981;28;20484;-45
2022/07/26 04:25:11;;;;;;;6.03;5.60;;;;;;;17.40;100.00;100863.34;5031522;28;20467;-47
2022/07/26 04:27:39;;;;;;;5.97;5.57;;;;;;;17.27;100.00;100860.91;5031659;28;20442;-44
2022/07/26 04:30:08;;;;;;;5.10;4.50;;;;;;;17.06;100.00;100870.44;5031418;28;20480;-47
2022/07/26 04:32:43;;;;;;;4.20;3.93;;;;;;;16.70;100.00;100869.84;5030522;28;20542;-46
2022/07/26 04:35:14;;;;;;;5.37;4.97;;;;;;;16.64;98.23;100873.47;5024191;28;20878;-47
2022/07/26 04:37:42;;;;;;;4.60;4.17;;;;;;;16.44;98.66;100885.38;5030385;28;20518;-49
2022/07/26 04:40:11;;;;;;;4.40;4.00;;;;;;;16.37;96.51;100889.19;5031495;28;20928;-44
2022/07/26 04:42:39;;;;;;;3.70;3.50;;;;;;;16.30;93.79;100893.88;5030630;28;20460;-44
2022/07/26 04:45:09;;;;;;;6.43;4.23;;;;;;;16.17;91.92;100889.50;5031341;28;20443;-47
2022/07/26 04:47:37;;;;;;;3.60;3.40;;;;;;;16.06;92.51;100895.69;5031117;28;20436;-45
2022/07/26 04:50:08;;;;;;;5.00;4.43;;;;;;;16.01;93.31;100893.66;5034291;28;20515;-51
2022/07/26 04:52:35;;;;;;;4.23;3.90;;;;;;;16.04;93.35;100898.56;5034255;28;20482;-44
2022/07/26 04:55:04;;;;;;;4.33;3.40;;;;;;;16.06;95.14;100898.38;5035111;28;20503;-44
2022/07/26 04:57:31;;;;;;;5.73;3.43;;;;;;;16.07;96.42;100904.56;5034960;28;20436;-44
2022/07/26 04:59:59;;;;;;;3.87;3.47;;;;;;;16.15;97.36;100917.69;5035001;28;20431;-47
2022/07/26 05:02:48;;;;;;;4.63;3.10;;;;;;;16.13;100.00;100923.28;5034120;28;20810;-46
2022/07/26 05:05:17;;;;;;;3.80;3.60;;;;;;;16.20;100.00;100915.13;5034311;28;20458;-44
2022/07/26 05:07:46;;;;;;;6.00;3.60;;;;;;;16.25;100.00;100926.84;5034738;28;20820;-45
2022/07/26 05:10:16;;;;;;;4.63;3.80;;;;;;;16.25;100.00;100926.84;5034282;28;20493;-44
2022/07/26 05:12:44;;;;;;;5.33;3.23;;;;;;;16.26;100.00;100941.13;5033276;28;20474;-44
2022/07/26 05:15:12;;;;;;;6.60;3.93;;;;;;;16.33;100.00;100942.69;5034463;28;20432;-44
2022/07/26 05:17:42;;;;;;;3.70;3.50;;;;;;;16.27;100.00;100942.78;5034098;28;20508;-48
2022/07/26 05:20:12;;;;;;;3.97;3.67;;;;;;;16.30;100.00;100961.97;5014654;28;20471;-44
2022/07/26 05:22:42;;;;;;;3.67;3.40;;;;;;;16.32;100.00;100954.50;5026192;28;20468;-45
2022/07/26 05:25:10;;;;;;;4.03;3.73;;;;;;;16.33;100.00;100958.00;5034492;28;20439;-44
2022/07/26 05:27:39;;;;;;;6.40;3.50;;;;;;;16.30;100.00;100950.38;5033082;28;20440;-45
2022/07/26 05:30:08;;;;;;;3.70;3.40;;;;;;;16.34;100.00;100955.06;5033016;28;20436;-45
2022/07/26 05:32:36;;;;;;;3.37;3.10;;;;;;;16.43;100.00;100963.63;5032608;28;20471;-44
2022/07/26 05:35:04;;;;;;;3.70;3.47;;;;;;;16.55;100.00;100964.53;5033135;28;20426;-47
2022/07/26 05:37:32;;;;;;;7.43;3.33;;;;;;;16.48;100.00;100966.47;5032953;28;20432;-47
2022/07/26 05:40:01;;;;;;;3.70;3.40;;;;;;;16.54;100.00;100965.59;5037098;28;20431;-50
2022/07/26 05:42:29;;;;;;;4.80;3.90;;;;;;;16.59;100.00;100976.47;5032872;28;20456;-44
2022/07/26 05:44:56;;;;;;;7.00;3.60;;;;;;;16.54;100.00;100970.97;5032991;28;20428;-45
2022/07/26 05:47:24;;;;;;;3.50;3.20;;;;;;;16.85;100.00;100970.69;5032951;28;20818;-44
2022/07/26 05:49:51;;;;;;;5.53;3.23;;;;;;;17.48;100.00;100981.59;5032874;28;20436;-48
2022/07/26 05:52:19;;;;;;;4.43;3.10;;;;;;;17.49;98.38;100980.56;5031894;28;20563;-49
2022/07/26 05:54:47;;;;;;;3.23;3.10;;;;;;;17.44;97.97;100979.63;5032897;28;20442;-44
2022/07/26 05:57:16;;;;;;;4.70;3.60;;;;;;;17.46;98.10;100991.00;5032588;28;20436;-46
2022/07/26 05:59:43;;;;;;;4.30;3.27;;;;;;;17.57;97.57;100990.19;5032211;28;20442;-47
2022/07/26 06:02:11;;;;;;;6.30;3.60;;;;;;;17.45;95.73;101005.50;5031883;28;20475;-46
2022/07/26 06:04:39;;;;;;;3.87;3.00;;;;;;;17.34;96.83;101000.94;5032619;28;20440;-45
2022/07/26 06:07:06;;;;;;;3.93;3.53;;;;;;;17.14;97.25;101006.69;5032278;28;20447;-48
2022/07/26 06:09:34;;;;;;;8.57;3.87;;;;;;;16.93;100.00;101010.78;5031888;28;20527;-47
2022/07/26 06:12:02;;;;;;;6.87;3.97;;;;;;;16.45;100.00;101018.91;5031479;28;20487;-44
2022/07/26 06:14:31;;;;;;;10.30;5.40;;;;;;;16.04;100.00;101029.56;5032552;28;20432;-44
2022/07/26 06:16:58;;;;;;;3.77;3.47;;;;;;;15.88;100.00;101024.81;5032351;28;20432;-46
2022/07/26 06:19:26;;;;;;;4.83;4.03;;;;;;;15.73;100.00;101030.56;5031655;28;20436;-44
2022/07/26 06:21:54;;;;;;;4.90;4.10;;;;;;;15.69;100.00;101026.66;5031824;28;20490;-45
2022/07/26 06:24:22;;;;;;;3.50;3.40;;;;;;;15.76;100.00;101040.03;5032313;28;20437;-44
2022/07/26 06:26:52;;;;;;;4.67;3.77;;;;;;;15.81;100.00;101043.69;5032264;28;20440;-44
2022/07/26 06:29:24;;;;;;;3.50;3.30;;;;;;;16.07;100.00;101044.47;5032031;28;20775;-45
2022/07/26 06:32:00;;;;;;;4.03;3.77;;;;;;;16.28;100.00;101043.97;5031142;28;21001;-48
2022/07/26 06:34:28;;;;;;;6.33;3.60;;;;;;;16.54;100.00;101047.19;5032209;28;20436;-45
2022/07/26 06:36:55;;;;;;;3.80;3.57;;;;;;;18.08;91.97;101033.38;5032034;28;20442;-45
2022/07/26 06:39:23;;;;;;;5.57;3.90;;;;;;;18.63;87.57;101041.78;5031959;28;20443;-48
2022/07/26 06:41:51;;;;;;;5.70;3.67;;;;;;;18.33;85.27;101037.66;5031049;28;21004;-48
2022/07/26 06:44:18;;;;;;;5.17;3.60;;;;;;;18.57;82.68;101039.22;5031804;28;20436;-47
2022/07/26 06:46:46;;;;;;;4.23;3.87;;;;;;;18.71;85.50;101038.69;5032139;28;20873;-48
2022/07/26 06:49:15;;;;;;;3.10;2.90;;;;;;;19.24;82.21;101050.94;5031052;28;20431;-52
2022/07/26 06:51:49;;;;;;;3.53;3.33;;;;;;;19.35;78.67;101050.84;5031298;28;20494;-50
2022/07/26 06:54:17;;;;;;;4.23;3.27;;;;;;;18.91;81.02;101057.13;5031752;28;20431;-53
2022/07/26 06:56:44;;;;;;;3.53;3.23;;;;;;;18.49;83.23;101072.00;5031810;28;20436;-51
2022/07/26 06:59:12;;;;;;;4.80;3.20;;;;;;;19.34;75.79;101064.63;5031428;28;20443;-51
2022/07/26 07:01:40;;;;;;;3.10;2.90;;;;;;;18.30;78.38;101074.06;5030908;28;20814;-49
2022/07/26 07:04:28;;;;;;;10.13;3.23;;;;;;;18.41;82.61;101080.47;5025976;28;20775;-49
2022/07/26 07:07:01;;;;;;;6.00;2.97;;;;;;;17.93;79.29;101068.13;5031404;28;20432;-50
2022/07/26 07:09:32;;;;;;;5.70;3.07;;;;;;;17.72;79.71;101082.22;5031036;28;20423;-49
2022/07/26 07:12:01;;;;;;;3.53;3.23;;;;;;;17.66;81.14;101072.38;5031631;28;20470;-52
2022/07/26 07:14:37;;;;;;;3.10;2.90;;;;;;;17.55;79.66;101084.00;5035883;28;20434;-51
2022/07/26 07:17:05;;;;;;;3.27;2.97;;;;;;;17.71;80.14;101086.00;5043480;28;20431;-55
2022/07/26 07:19:41;;;;;;;4.90;3.40;;;;;;;19.35;75.56;101096.81;5034646;28;20432;-54
2022/07/26 07:22:10;;;;;;;3.60;3.30;;;;;;;19.31;71.11;101097.56;5035988;28;20502;-54
2022/07/26 07:24:39;;;;;;;3.37;3.07;;;;;;;19.11;70.75;101098.06;5036852;28;20428;-52
2022/07/26 07:27:07;;;;;;;5.93;3.43;;;;;;;19.54;70.78;101100.13;5036870;28;20446;-52
2022/07/26 07:29:34;;;;;;;3.87;3.20;;;;;;;20.42;66.28;101093.81;5035575;28;20431;-50
2022/07/26 07:32:02;;;;;;;3.77;3.30;;;;;;;20.26;68.17;101095.50;5033688;28;20480;-45
2022/07/26 07:34:30;;;;;;;15.13;4.47;;;;;;;20.27;67.57;101110.69;5034278;28;20436;-50
2022/07/26 07:37:00;;;;;;;5.27;4.77;;;;;;;19.48;69.36;101119.22;5035551;28;20431;-50
2022/07/26 07:39:29;;;;;;;4.90;4.60;;;;;;;17.66;77.97;101142.50;5034471;28;20485;-54
2022/07/26 07:42:05;;;;;;;4.90;4.43;;;;;;;16.45;85.15;101147.28;5032118;28;20553;-51
2022/07/26 07:44:33;;;;;;;4.80;4.40;;;;;;;16.07;90.05;101154.75;5035025;28;21147;-52
2022/07/26 07:47:00;;;;;;;4.87;4.30;;;;;;;15.61;93.12;101139.88;5032456;28;21016;-48
2022/07/26 07:49:28;;;;;;;6.00;4.27;;;;;;;15.63;94.39;101153.06;5034032;28;20445;-51
2022/07/26 07:51:56;;;;;;;8.97;4.70;;;;;;;15.75;95.06;101154.84;5032242;28;20511;-52
2022/07/26 07:54:25;;;;;;;8.80;4.90;;;;;;;15.82;95.38;101147.53;5033214;28;20846;-48
2022/07/26 07:56:55;;;;;;;4.57;4.17;;;;;;;16.21;94.70;101151.72;5033508;28;20507;-51
2022/07/26 07:59:22;;;;;;;4.53;4.13;;;;;;;16.33;93.80;101158.00;5032480;28;20470;-55
2022/07/26 08:01:50;;;;;;;4.00;3.60;;;;;;;16.78;89.76;101146.91;5032881;28;20474;-51
2022/07/26 08:04:18;;;;;;;4.63;4.23;;;;;;;17.31;88.18;101155.06;5034879;28;20436;-52
2022/07/26 08:06:46;;;;;;;8.20;4.37;;;;;;;17.41;84.37;101144.56;5033655;28;20444;-49
2022/07/26 08:09:17;;;;;;;7.80;3.67;;;;;;;17.80;82.64;101156.59;5033032;28;20438;-51
2022/07/26 08:11:47;;;;;;;4.70;4.37;;;;;;;17.68;80.27;101157.38;5032381;28;20471;-47
2022/07/26 08:14:17;;;;;;;7.50;4.80;;;;;;;17.50;79.86;101156.66;5033346;28;20428;-49
2022/07/26 08:16:45;;;;;;;6.07;4.30;;;;;;;17.62;80.45;101165.63;5039225;28;20442;-48
2022/07/26 08:19:13;;;;;;;7.93;4.40;;;;;;;17.54;78.86;101164.06;5035820;28;20523;-52
2022/07/26 08:21:44;;;;;;;10.50;4.47;;;;;;;17.96;78.91;101155.88;5032806;28;20471;-50
2022/07/26 08:24:13;;;;;;;4.77;4.30;;;;;;;18.06;74.66;101151.56;5036506;28;20428;-51
2022/07/26 08:26:41;;;;;;;7.07;4.27;;;;;;;18.33;71.74;101156.44;5036347;28;20442;-50
2022/07/26 08:29:10;;;;;;;4.70;4.30;;;;;;;18.60;68.83;101149.50;5036072;28;20431;-49
2022/07/26 08:31:39;;;;;;;5.30;4.97;;;;;;;19.03;68.77;101147.06;5035017;28;20471;-48
2022/07/26 08:34:06;;;;;;;9.47;5.23;;;;;;;19.21;70.41;101151.44;5035152;28;20435;-52
2022/07/26 08:36:34;;;;;;;4.57;4.37;;;;;;;18.74;66.02;101158.94;5035429;28;20518;-52
2022/07/26 08:39:02;;;;;;;5.17;4.90;;;;;;;18.58;68.81;101165.91;5035169;28;20538;-49
2022/07/26 08:41:30;;;;;;;5.97;5.57;;;;;;;19.23;64.97;101169.06;5034789;28;20474;-50
2022/07/26 08:44:05;;;;;;;6.10;5.60;;;;;;;19.22;62.91;101161.22;5035123;28;20438;-55
2022/07/26 08:46:37;;;;;;;5.37;4.97;;;;;;;19.02;62.97;101172.50;5035269;28;20469;-51
2022/07/26 08:49:08;;;;;;;5.90;5.50;;;;;;;18.73;63.31;101195.13;5035865;28;20428;-49
2022/07/26 08:51:39;;;;;;;5.17;4.77;;;;;;;18.51;66.39;101199.53;5034422;28;20474;-49
2022/07/26 08:54:07;;;;;;;5.27;4.80;;;;;;;18.19;67.57;101202.56;5035672;28;20470;-48
2022/07/26 08:56:36;;;;;;;6.73;5.33;;;;;;;18.05;65.42;101203.03;5035403;28;20439;-48
2022/07/26 08:59:05;;;;;;;6.80;5.30;;;;;;;17.97;65.38;101206.94;5035446;28;20428;-49
2022/07/26 09:01:34;;;;;;;6.53;4.50;;;;;;;18.35;65.26;101219.94;5034593;28;20463;-48
2022/07/26 09:04:18;;;;;;;5.60;4.90;;;;;;;18.66;65.17;101219.59;5034659;28;20438;-51
2022/07/26 09:07:00;;;;;;;4.27;3.87;;;;;;;18.93;61.26;101222.59;5035835;28;20442;-50
2022/07/26 09:09:29;;;;;;;9.30;4.37;;;;;;;18.99;60.72;101218.09;5034987;28;20794;-50
2022/07/26 09:11:57;;;;;;;4.40;4.00;;;;;;;18.95;62.18;101230.44;5034584;28;20469;-53
2022/07/26 09:14:36;;;;;;;6.93;3.97;;;;;;;19.30;59.69;101225.72;5034663;28;20436;-53
2022/07/26 09:17:05;;;;;;;3.60;3.23;;;;;;;18.95;53.09;101217.75;5034648;28;20435;-49
2022/07/26 09:19:33;;;;;;;3.83;3.43;;;;;;;19.05;55.94;101220.66;5020384;28;20431;-47
2022/07/26 09:22:07;;;;;;;4.80;3.13;;;;;;;18.95;57.29;101247.47;5035115;28;20462;-48
2022/07/26 09:24:39;;;;;;;6.80;3.57;;;;;;;18.82;62.37;101249.63;5034509;28;20431;-53
2022/07/26 09:27:09;;;;;;;5.00;3.20;;;;;;;18.19;59.63;101255.75;5034263;28;20447;-53
2022/07/26 09:29:47;;;;;;;6.37;4.20;;;;;;;18.35;59.25;101254.22;5034075;28;20435;-48
2022/07/26 09:32:19;;;;;;;3.87;3.47;;;;;;;18.37;57.42;101252.91;5033235;28;20471;-53
2022/07/26 09:34:49;;;;;;;9.07;4.00;;;;;;;18.59;59.16;101258.59;5033204;28;20432;-52
2022/07/26 09:37:35;;;;;;;5.43;4.17;;;;;;;18.84;57.00;101245.63;5033706;28;20443;-53
2022/07/26 09:40:07;;;;;;;3.70;3.40;;;;;;;19.04;54.47;101256.84;5019417;28;20467;-50
2022/07/26 09:42:35;;;;;;;4.27;3.83;;;;;;;19.55;54.12;101252.44;5015030;28;20468;-52
2022/07/26 09:45:14;;;;;;;4.00;3.20;;;;;;;19.91;55.91;101252.00;5015039;28;20428;-50
2022/07/26 09:47:43;;;;;;;4.10;3.80;;;;;;;20.02;52.33;101263.81;5016183;28;20433;-52
2022/07/26 09:50:12;;;;;;;5.53;3.63;;;;;;;19.45;55.92;101260.38;5017126;28;20436;-53
2022/07/26 09:52:41;;;;;;;6.70;3.87;;;;;;;19.07;56.43;101274.47;5015667;28;20481;-50
2022/07/26 09:55:11;;;;;;;5.57;3.40;;;;;;;19.15;53.99;101272.22;5016652;28;20425;-52
2022/07/26 09:57:39;;;;;;;5.83;3.43;;;;;;;19.35;50.30;101275.31;5017367;28;20442;-52
2022/07/26 10:00:08;;;;;;;4.57;3.10;;;;;;;19.34;52.09;101254.75;5016118;28;20432;-53
2022/07/26 10:02:36;;;;;;;9.30;3.80;;;;;;;19.51;53.97;101273.75;5015878;28;20495;-50
2022/07/26 10:05:06;;;;;;;7.53;3.70;;;;;;;18.80;57.16;101279.59;5016438;28;20472;-51
2022/07/26 10:07:34;;;;;;;8.30;3.37;;;;;;;18.47;55.90;101287.44;5016464;28;21020;-54
2022/07/26 10:10:06;;;;;;;7.30;4.27;;;;;;;18.68;59.51;101292.28;5016592;28;20950;-52
2022/07/26 10:12:35;;;;;;;4.93;3.50;;;;;;;18.60;56.61;101287.25;5048064;28;20462;-48
2022/07/26 10:15:03;;;;;;;6.23;3.43;;;;;;;19.08;55.26;101289.63;5055320;28;20421;-48
2022/07/26 10:17:42;;;;;;;4.80;3.00;;;;;;;19.79;52.81;101292.69;5055532;28;20445;-54
2022/07/26 10:20:30;;;;;;;4.50;3.70;;;;;;;20.45;51.07;101295.66;5055870;28;20426;-52
2022/07/26 10:22:58;;;;;;;5.53;3.23;;;;;;;20.07;47.79;101291.78;5055035;28;20459;-53
2022/07/26 10:25:47;;;;;;;3.80;3.20;;;;;;;19.74;53.54;101305.28;5054309;28;20792;-53
2022/07/26 10:28:26;;;;;;;6.93;3.20;;;;;;;19.72;47.61;101302.00;5034559;28;20947;-55
2022/07/26 10:31:23;;;;;;;3.90;3.20;;;;;;;20.12;53.99;101312.72;5033694;28;20431;-54
2022/07/26 10:33:53;;;;;;;8.00;3.20;;;;;;;21.06;49.13;101300.00;5034768;28;20487;-53
2022/07/26 10:36:27;;;;;;;5.53;3.00;;;;;;;21.22;46.04;101308.13;5034823;28;20432;-51
2022/07/26 10:39:04;;;;;;;4.07;3.17;;;;;;;20.68;47.21;101304.41;5035361;28;20510;-54
2022/07/26 10:41:33;;;;;;;7.53;3.43;;;;;;;20.39;49.20;101311.03;5034709;28;20465;-49
2022/07/26 10:44:23;;;;;;;7.27;3.80;;;;;;;20.40;51.13;101318.88;5034769;28;20432;-53
2022/07/26 10:47:11;;;;;;;3.33;3.03;;;;;;;20.81;49.07;101316.78;5035267;28;20435;-55
2022/07/26 10:49:40;;;;;;;3.93;3.27;;;;;;;20.66;50.24;101308.44;5035464;28;20471;-54
2022/07/26 10:52:21;;;;;;;5.20;3.77;;;;;;;20.42;47.07;101316.78;5034000;28;20471;-52
2022/07/26 10:55:06;;;;;;;3.77;3.17;;;;;;;20.51;47.52;101325.31;5034859;28;20471;-54
2022/07/26 10:57:35;;;;;;;5.10;3.37;;;;;;;19.85;48.76;101326.88;5035195;28;20445;-52
2022/07/26 11:00:12;;;;;;;5.50;3.60;;;;;;;19.82;50.10;101326.53;5034541;28;20519;-52
2022/07/26 11:02:42;;;;;;;5.87;3.80;;;;;;;19.65;51.13;101325.69;5032372;28;21010;-50
2022/07/26 11:05:15;;;;;;;4.47;3.23;;;;;;;19.98;50.88;101336.56;5032902;28;20428;-46
2022/07/26 11:07:57;;;;;;;4.40;3.93;;;;;;;20.59;51.53;101340.31;5032523;28;20971;-52
2022/07/26 11:10:27;;;;;;;3.70;3.40;;;;;;;20.89;49.03;101333.44;5032989;28;20424;-49
2022/07/26 11:13:03;;;;;;;6.07;3.67;;;;;;;21.41;48.18;101333.06;5033263;28;20469;-47
2022/07/26 11:15:31;;;;;;;7.67;4.13;;;;;;;21.34;49.65;101335.97;5033692;28;20431;-53
2022/07/26 11:18:07;;;;;;;5.57;3.40;;;;;;;20.68;48.02;101344.25;5034374;28;20979;-49
2022/07/26 11:20:35;;;;;;;4.40;3.00;;;;;;;20.76;48.91;101331.06;5034215;28;20441;-51
2022/07/26 11:23:04;;;;;;;7.13;3.53;;;;;;;20.60;51.70;101334.66;5033140;28;20821;-46
2022/07/26 11:25:32;;;;;;;6.00;3.33;;;;;;;20.48;53.02;101336.63;5034138;28;20431;-51
2022/07/26 11:28:01;;;;;;;8.77;4.20;;;;;;;20.58;50.78;101347.59;5033802;28;20804;-51
2022/07/26 11:30:33;;;;;;;3.90;3.07;;;;;;;20.59;50.22;101343.00;5035026;28;20428;-49
2022/07/26 11:33:01;;;;;;;4.63;3.60;;;;;;;20.11;52.33;101346.25;5033592;28;20900;-49
2022/07/26 11:35:28;;;;;;;7.20;3.63;;;;;;;19.76;51.49;101346.47;5034522;28;20478;-47
2022/07/26 11:38:00;;;;;;;3.47;3.17;;;;;;;19.65;53.30;101341.94;5034686;28;20469;-48